sensor_id;sensor_type;location;lat;lon;timestamp;temperature;humidity
37938;DHT22;23763;48.130;11.602;2022-08-21T00:00:55;17.40;99.90
37938;DHT22;23763;48.130;11.602;2022-08-21T00:03:21;17.40;99.90
37938;DHT22;23763;48.130;11.602;2022-08-21T00:05:49;17.40;99.90
37938;DHT22;23763;48.130;11.602;2022-08-21T00:08:17;17.40;99.90
37938;DHT22;23763;48.130;11.602;2022-08-21T00:10:44;17.30;99.90
37938;DHT22;23763;48.130;11.602;2022-08-21T00:13:10;17.30;99.90
37938;DHT22;23763;48.130;11.602;2022-08-21T00:15:38;17.30;99.90
37938;DHT22;23763;48.130;11.602;2022-08-21T00:18:05;17.30;99.90
37938;DHT22;23763;48.130;11.602;2022-08-21T00:20:31;17.20;99.90
37938;DHT22;23763;48.130;11.602;2022-08-21T00:22:57;17.20;99.90
37938;DHT22;23763;48.130;11.602;2022-08-21T00:25:23;17.10;99.90
37938;DHT22;23763;48.130;11.602;2022-08-21T00:27:49;17.10;99.90
37938;DHT22;23763;48.130;11.602;2022-08-21T00:30:17;17.10;99.90
37938;DHT22;23763;48.130;11.602;2022-08-21T00:32:43;17.10;99.90
37938;DHT22;23763;48.130;11.602;2022-08-21T00:35:14;17.10;99.90
37938;DHT22;23763;48.130;11.602;2022-08-21T00:37:40;17.10;99.90
37938;DHT22;23763;48.130;11.602;2022-08-21T00:40:11;17.10;99.90
37938;DHT22;23763;48.130;11.602;2022-08-21T00:42:37;17.10;99.90
37938;DHT22;23763;48.130;11.602;2022-08-21T00:45:05;17.10;99.90
37938;DHT22;23763;48.130;11.602;2022-08-21T00:47:31;17.10;99.90
37938;DHT22;23763;48.130;11.602;2022-08-21T00:49:57;17.00;99.90
37938;DHT22;23763;48.130;11.602;2022-08-21T00:52:28;17.10;99.90
37938;DHT22;23763;48.130;11.602;2022-08-21T00:54:57;17.10;99.90
37938;DHT22;23763;48.130;11.602;2022-08-21T00:57:31;17.10;99.90
37938;DHT22;23763;48.130;11.602;2022-08-21T01:00:00;17.00;99.90
37938;DHT22;23763;48.130;11.602;2022-08-21T01:02:26;17.00;99.90
37938;DHT22;23763;48.130;11.602;2022-08-21T01:04:53;17.00;99.90
37938;DHT22;23763;48.130;11.602;2022-08-21T01:07:19;16.90;99.90
37938;DHT22;23763;48.130;11.602;2022-08-21T01:09:46;16.90;99.90
37938;DHT22;23763;48.130;11.602;2022-08-21T01:12:13;16.90;99.90
37938;DHT22;23763;48.130;11.602;2022-08-21T01:14:41;16.90;99.90
37938;DHT22;23763;48.130;11.602;2022-08-21T01:17:08;16.90;99.90
37938;DHT22;23763;48.130;11.602;2022-08-21T01:19:35;16.90;99.90
37938;DHT22;23763;48.130;11.602;2022-08-21T01:22:00;16.90;99.90
37938;DHT22;23763;48.130;11.602;2022-08-21T01:24:26;16.80;99.90
37938;DHT22;23763;48.130;11.602;2022-08-21T01:26:52;16.80;99.90
37938;DHT22;23763;48.130;11.602;2022-08-21T01:31:57;16.80;99.90
37938;DHT22;23763;48.130;11.602;2022-08-21T01:34:22;16.80;99.90
37938;DHT22;23763;48.130;11.602;2022-08-21T01:36:48;16.80;99.90
37938;DHT22;23763;48.130;11.602;2022-08-21T01:39:14;16.80;99.90
37938;DHT22;23763;48.130;11.602;2022-08-21T01:41:40;16.80;99.90
37938;DHT22;23763;48.130;11.602;2022-08-21T01:44:06;16.80;99.90
37938;DHT22;23763;48.130;11.602;2022-08-21T01:46:32;16.80;99.90
37938;DHT22;23763;48.130;11.602;2022-08-21T01:48:58;16.70;99.90
37938;DHT22;23763;48.130;11.602;2022-08-21T01:51:24;16.70;99.90
37938;DHT22;23763;48.130;11.602;2022-08-21T01:53:50;16.70;99.90
37938;DHT22;23763;48.130;11.602;2022-08-21T01:56:16;16.60;99.90
37938;DHT22;23763;48.130;11.602;2022-08-21T01:58:45;16.60;99.90
37938;DHT22;23763;48.130;11.602;2022-08-21T02:01:11;16.60;99.90
37938;DHT22;23763;48.130;11.602;2022-08-21T02:03:38;16.60;99.90
37938;DHT22;23763;48.130;11.602;2022-08-21T02:06:05;16.60;99.90
37938;DHT22;23763;48.130;11.602;2022-08-21T02:08:32;16.60;99.90
37938;DHT22;23763;48.130;11.602;2022-08-21T02:10:58;16.60;99.90
37938;DHT22;23763;48.130;11.602;2022-08-21T02:13:24;16.60;99.90
37938;DHT22;23763;48.130;11.602;2022-08-21T02:15:49;16.60;99.90
37938;DHT22;23763;48.130;11.602;2022-08-21T02:18:15;16.50;99.90
37938;DHT22;23763;48.130;11.602;2022-08-21T02:20:44;16.50;99.90
37938;DHT22;23763;48.130;11.602;2022-08-21T02:23:10;16.50;99.90
37938;DHT22;23763;48.130;11.602;2022-08-21T02:25:37;16.50;99.90
37938;DHT22;23763;48.130;11.602;2022-08-21T02:28:06;16.50;99.90
37938;DHT22;23763;48.130;11.602;2022-08-21T02:30:36;16.50;99.90
37938;DHT22;23763;48.130;11.602;2022-08-21T02:33:04;16.50;99.90
37938;DHT22;23763;48.130;11.602;2022-08-21T02:35:30;16.40;99.90
37938;DHT22;23763;48.130;11.602;2022-08-21T02:38:00;16.40;99.90
37938;DHT22;23763;48.130;11.602;2022-08-21T02:40:30;16.40;99.90
37938;DHT22;23763;48.130;11.602;2022-08-21T02:42:58;16.40;99.90
37938;DHT22;23763;48.130;11.602;2022-08-21T02:45:24;16.40;99.90
37938;DHT22;23763;48.130;11.602;2022-08-21T02:47:55;16.40;99.90
37938;DHT22;23763;48.130;11.602;2022-08-21T02:50:28;16.40;99.90
37938;DHT22;23763;48.130;11.602;2022-08-21T02:52:54;16.40;99.90
37938;DHT22;23763;48.130;11.602;2022-08-21T02:55:25;16.40;99.90
37938;DHT22;23763;48.130;11.602;2022-08-21T02:57:53;16.30;99.90
37938;DHT22;23763;48.130;11.602;2022-08-21T03:00:20;16.30;99.90
37938;DHT22;23763;48.130;11.602;2022-08-21T03:02:47;16.30;99.90
37938;DHT22;23763;48.130;11.602;2022-08-21T03:05:13;16.30;99.90
37938;DHT22;23763;48.130;11.602;2022-08-21T03:07:41;16.30;99.90
37938;DHT22;23763;48.130;11.602;2022-08-21T03:10:07;16.20;99.90
37938;DHT22;23763;48.130;11.602;2022-08-21T03:12:34;16.20;99.90
37938;DHT22;23763;48.130;11.602;2022-08-21T03:15:05;16.20;99.90
37938;DHT22;23763;48.130;11.602;2022-08-21T03:17:32;16.20;99.90
37938;DHT22;23763;48.130;11.602;2022-08-21T03:19:58;16.20;99.90
37938;DHT22;23763;48.130;11.602;2022-08-21T03:22:23;16.20;99.90
37938;DHT22;23763;48.130;11.602;2022-08-21T03:24:49;16.20;99.90
37938;DHT22;23763;48.130;11.602;2022-08-21T03:27:15;16.10;99.90
37938;DHT22;23763;48.130;11.602;2022-08-21T03:29:41;16.10;99.90
37938;DHT22;23763;48.130;11.602;2022-08-21T03:32:07;16.10;99.90
37938;DHT22;23763;48.130;11.602;2022-08-21T03:34:36;16.10;99.90
37938;DHT22;23763;48.130;11.602;2022-08-21T03:37:03;16.10;99.90
37938;DHT22;23763;48.130;11.602;2022-08-21T03:39:29;16.10;99.90
37938;DHT22;23763;48.130;11.602;2022-08-21T03:41:55;16.10;99.90
37938;DHT22;23763;48.130;11.602;2022-08-21T03:44:20;16.20;99.90
37938;DHT22;23763;48.130;11.602;2022-08-21T03:46:46;16.20;99.90
37938;DHT22;23763;48.130;11.602;2022-08-21T03:49:12;16.10;99.90
37938;DHT22;23763;48.130;11.602;2022-08-21T03:51:38;16.20;99.90
37938;DHT22;23763;48.130;11.602;2022-08-21T03:54:04;16.20;99.90
37938;DHT22;23763;48.130;11.602;2022-08-21T03:56:30;16.20;99.90
37938;DHT22;23763;48.130;11.602;2022-08-21T03:58:56;16.10;99.90
37938;DHT22;23763;48.130;11.602;2022-08-21T04:01:21;16.10;99.90
37938;DHT22;23763;48.130;11.602;2022-08-21T04:03:47;16.00;99.90
37938;DHT22;23763;48.130;11.602;2022-08-21T04:06:13;16.10;99.90
37938;DHT22;23763;48.130;11.602;2022-08-21T04:08:39;16.10;99.90
37938;DHT22;23763;48.130;11.602;2022-08-21T04:11:08;16.10;99.90
37938;DHT22;23763;48.130;11.602;2022-08-21T04:13:36;16.10;99.90
37938;DHT22;23763;48.130;11.602;2022-08-21T04:16:02;16.10;99.90
37938;DHT22;23763;48.130;11.602;2022-08-21T04:18:28;16.10;99.90
37938;DHT22;23763;48.130;11.602;2022-08-21T04:20:56;16.00;99.90
37938;DHT22;23763;48.130;11.602;2022-08-21T04:23:23;16.00;99.90
37938;DHT22;23763;48.130;11.602;2022-08-21T04:25:49;16.00;99.90
37938;DHT22;23763;48.130;11.602;2022-08-21T04:28:15;16.00;99.90
37938;DHT22;23763;48.130;11.602;2022-08-21T04:30:40;16.00;99.90
37938;DHT22;23763;48.130;11.602;2022-08-21T04:33:06;16.10;99.90
37938;DHT22;23763;48.130;11.602;2022-08-21T04:35:32;16.10;99.90
37938;DHT22;23763;48.130;11.602;2022-08-21T04:37:58;16.10;99.90
37938;DHT22;23763;48.130;11.602;2022-08-21T04:40:25;16.10;99.90
37938;DHT22;23763;48.130;11.602;2022-08-21T04:42:55;16.10;99.90
37938;DHT22;23763;48.130;11.602;2022-08-21T04:45:23;16.00;99.90
37938;DHT22;23763;48.130;11.602;2022-08-21T04:47:55;16.00;99.90
37938;DHT22;23763;48.130;11.602;2022-08-21T04:50:41;16.00;99.90
37938;DHT22;23763;48.130;11.602;2022-08-21T04:53:18;16.00;99.90
37938;DHT22;23763;48.130;11.602;2022-08-21T04:55:46;16.00;99.90
37938;DHT22;23763;48.130;11.602;2022-08-21T04:58:14;16.00;99.90
37938;DHT22;23763;48.130;11.602;2022-08-21T05:00:43;16.10;99.90
37938;DHT22;23763;48.130;11.602;2022-08-21T05:03:10;16.10;99.90
37938;DHT22;23763;48.130;11.602;2022-08-21T05:05:37;16.20;99.90
37938;DHT22;23763;48.130;11.602;2022-08-21T05:08:03;16.30;99.90
37938;DHT22;23763;48.130;11.602;2022-08-21T05:10:30;16.30;99.90
37938;DHT22;23763;48.130;11.602;2022-08-21T05:12:57;16.40;99.90
37938;DHT22;23763;48.130;11.602;2022-08-21T05:15:23;16.40;99.90
37938;DHT22;23763;48.130;11.602;2022-08-21T05:17:48;16.50;99.90
37938;DHT22;23763;48.130;11.602;2022-08-21T05:20:16;16.60;99.90
37938;DHT22;23763;48.130;11.602;2022-08-21T05:22:42;16.70;99.90
37938;DHT22;23763;48.130;11.602;2022-08-21T05:25:09;16.90;99.90
37938;DHT22;23763;48.130;11.602;2022-08-21T05:27:35;17.00;99.90
37938;DHT22;23763;48.130;11.602;2022-08-21T05:30:01;17.00;99.90
37938;DHT22;23763;48.130;11.602;2022-08-21T05:32:27;17.00;99.90
37938;DHT22;23763;48.130;11.602;2022-08-21T05:34:53;17.00;99.90
37938;DHT22;23763;48.130;11.602;2022-08-21T05:37:20;17.00;99.90
37938;DHT22;23763;48.130;11.602;2022-08-21T05:39:45;17.00;99.90
37938;DHT22;23763;48.130;11.602;2022-08-21T05:42:11;17.00;99.90
37938;DHT22;23763;48.130;11.602;2022-08-21T05:44:37;17.00;99.90
37938;DHT22;23763;48.130;11.602;2022-08-21T05:47:07;17.00;99.90
37938;DHT22;23763;48.130;11.602;2022-08-21T05:49:34;17.10;99.90
37938;DHT22;23763;48.130;11.602;2022-08-21T05:52:00;17.10;99.90
37938;DHT22;23763;48.130;11.602;2022-08-21T05:54:26;17.10;99.90
37938;DHT22;23763;48.130;11.602;2022-08-21T05:56:52;17.10;99.90
37938;DHT22;23763;48.130;11.602;2022-08-21T05:59:18;17.10;99.90
37938;DHT22;23763;48.130;11.602;2022-08-21T06:01:44;17.20;99.90
37938;DHT22;23763;48.130;11.602;2022-08-21T06:04:11;17.20;99.90
37938;DHT22;23763;48.130;11.602;2022-08-21T06:06:37;17.30;99.90
37938;DHT22;23763;48.130;11.602;2022-08-21T06:09:03;17.30;99.90
37938;DHT22;23763;48.130;11.602;2022-08-21T06:11:30;17.30;99.90
37938;DHT22;23763;48.130;11.602;2022-08-21T06:13:56;17.40;99.90
37938;DHT22;23763;48.130;11.602;2022-08-21T06:16:22;17.40;99.90
37938;DHT22;23763;48.130;11.602;2022-08-21T06:18:48;17.50;99.90
37938;DHT22;23763;48.130;11.602;2022-08-21T06:21:14;17.60;99.90
37938;DHT22;23763;48.130;11.602;2022-08-21T06:23:41;17.70;99.90
37938;DHT22;23763;48.130;11.602;2022-08-21T06:26:08;17.70;99.90
37938;DHT22;23763;48.130;11.602;2022-08-21T06:28:34;17.80;99.90
37938;DHT22;23763;48.130;11.602;2022-08-21T06:31:01;17.90;99.90
37938;DHT22;23763;48.130;11.602;2022-08-21T06:33:26;17.90;99.90
37938;DHT22;23763;48.130;11.602;2022-08-21T06:35:52;18.00;99.90
37938;DHT22;23763;48.130;11.602;2022-08-21T06:38:18;18.10;99.90
37938;DHT22;23763;48.130;11.602;2022-08-21T06:40:45;18.20;99.90
37938;DHT22;23763;48.130;11.602;2022-08-21T06:43:14;18.20;99.90
37938;DHT22;23763;48.130;11.602;2022-08-21T06:45:40;18.30;99.90
37938;DHT22;23763;48.130;11.602;2022-08-21T06:48:06;18.30;99.90
37938;DHT22;23763;48.130;11.602;2022-08-21T06:50:35;18.40;99.90
37938;DHT22;23763;48.130;11.602;2022-08-21T06:53:02;18.50;99.90
37938;DHT22;23763;48.130;11.602;2022-08-21T06:55:28;18.50;99.90
37938;DHT22;23763;48.130;11.602;2022-08-21T06:57:54;18.60;99.90
37938;DHT22;23763;48.130;11.602;2022-08-21T07:00:20;18.60;99.90
37938;DHT22;23763;48.130;11.602;2022-08-21T07:02:45;18.70;99.90
37938;DHT22;23763;48.130;11.602;2022-08-21T07:05:11;18.80;99.90
37938;DHT22;23763;48.130;11.602;2022-08-21T07:07:37;18.80;99.90
37938;DHT22;23763;48.130;11.602;2022-08-21T07:10:03;18.80;99.90
37938;DHT22;23763;48.130;11.602;2022-08-21T07:12:28;18.80;99.90
37938;DHT22;23763;48.130;11.602;2022-08-21T07:14:55;19.00;99.90
37938;DHT22;23763;48.130;11.602;2022-08-21T07:17:20;19.00;99.90
37938;DHT22;23763;48.130;11.602;2022-08-21T07:19:46;19.10;99.90
37938;DHT22;23763;48.130;11.602;2022-08-21T07:22:12;19.00;99.90
37938;DHT22;23763;48.130;11.602;2022-08-21T07:24:41;19.10;99.90
37938;DHT22;23763;48.130;11.602;2022-08-21T07:27:06;19.20;99.90
37938;DHT22;23763;48.130;11.602;2022-08-21T07:29:32;19.10;99.90
37938;DHT22;23763;48.130;11.602;2022-08-21T07:31:58;19.30;99.90
37938;DHT22;23763;48.130;11.602;2022-08-21T07:34:23;19.40;99.90
37938;DHT22;23763;48.130;11.602;2022-08-21T07:36:49;19.50;99.90
37938;DHT22;23763;48.130;11.602;2022-08-21T07:39:15;19.50;99.90
37938;DHT22;23763;48.130;11.602;2022-08-21T07:41:41;19.60;99.90
37938;DHT22;23763;48.130;11.602;2022-08-21T07:44:06;19.70;99.90
37938;DHT22;23763;48.130;11.602;2022-08-21T07:46:32;19.80;99.90
37938;DHT22;23763;48.130;11.602;2022-08-21T07:48:58;19.90;99.90
37938;DHT22;23763;48.130;11.602;2022-08-21T07:51:26;20.00;99.90
37938;DHT22;23763;48.130;11.602;2022-08-21T07:53:53;19.90;99.90
37938;DHT22;23763;48.130;11.602;2022-08-21T07:56:20;20.00;99.90
37938;DHT22;23763;48.130;11.602;2022-08-21T07:58:47;20.30;99.90
37938;DHT22;23763;48.130;11.602;2022-08-21T08:01:13;20.50;99.90
37938;DHT22;23763;48.130;11.602;2022-08-21T08:03:39;20.70;99.90
37938;DHT22;23763;48.130;11.602;2022-08-21T08:06:06;21.10;99.90
37938;DHT22;23763;48.130;11.602;2022-08-21T08:08:33;21.60;99.90
37938;DHT22;23763;48.130;11.602;2022-08-21T08:10:59;22.80;99.90
37938;DHT22;23763;48.130;11.602;2022-08-21T08:13:26;25.30;99.90
37938;DHT22;23763;48.130;11.602;2022-08-21T08:15:52;27.70;99.90
37938;DHT22;23763;48.130;11.602;2022-08-21T08:18:18;30.10;93.50
37938;DHT22;23763;48.130;11.602;2022-08-21T08:20:44;31.40;88.80
37938;DHT22;23763;48.130;11.602;2022-08-21T08:23:14;32.30;79.80
37938;DHT22;23763;48.130;11.602;2022-08-21T08:25:40;33.40;75.20
37938;DHT22;23763;48.130;11.602;2022-08-21T08:28:06;33.00;73.10
37938;DHT22;23763;48.130;11.602;2022-08-21T08:30:32;33.30;72.00
37938;DHT22;23763;48.130;11.602;2022-08-21T08:32:59;34.30;68.60
37938;DHT22;23763;48.130;11.602;2022-08-21T08:35:25;34.90;66.70
37938;DHT22;23763;48.130;11.602;2022-08-21T08:37:52;35.20;64.70
37938;DHT22;23763;48.130;11.602;2022-08-21T08:40:31;33.90;65.60
37938;DHT22;23763;48.130;11.602;2022-08-21T08:42:58;32.70;68.90
37938;DHT22;23763;48.130;11.602;2022-08-21T08:45:25;33.60;67.00
37938;DHT22;23763;48.130;11.602;2022-08-21T08:48:02;33.80;66.60
37938;DHT22;23763;48.130;11.602;2022-08-21T08:50:51;33.20;66.70
37938;DHT22;23763;48.130;11.602;2022-08-21T08:53:28;32.40;68.20
37938;DHT22;23763;48.130;11.602;2022-08-21T08:55:55;31.40;70.50
37938;DHT22;23763;48.130;11.602;2022-08-21T08:58:26;30.40;72.80
37938;DHT22;23763;48.130;11.602;2022-08-21T09:00:53;29.50;76.00
37938;DHT22;23763;48.130;11.602;2022-08-21T09:03:22;28.80;77.50
37938;DHT22;23763;48.130;11.602;2022-08-21T09:06:12;28.20;79.20
37938;DHT22;23763;48.130;11.602;2022-08-21T09:11:26;26.70;84.90
37938;DHT22;23763;48.130;11.602;2022-08-21T09:25:12;25.60;90.80
37938;DHT22;23763;48.130;11.602;2022-08-21T09:27:40;25.60;90.50
37938;DHT22;23763;48.130;11.602;2022-08-21T09:30:07;25.50;91.10
37938;DHT22;23763;48.130;11.602;2022-08-21T09:32:35;25.10;91.10
37938;DHT22;23763;48.130;11.602;2022-08-21T09:38:04;24.20;93.30
37938;DHT22;23763;48.130;11.602;2022-08-21T09:40:40;24.00;93.60
37938;DHT22;23763;48.130;11.602;2022-08-21T09:45:35;24.60;93.40
37938;DHT22;23763;48.130;11.602;2022-08-21T09:48:14;24.90;93.30
37938;DHT22;23763;48.130;11.602;2022-08-21T09:50:41;25.20;92.90
37938;DHT22;23763;48.130;11.602;2022-08-21T09:53:20;25.40;92.40
37938;DHT22;23763;48.130;11.602;2022-08-21T09:56:02;25.40;92.50
37938;DHT22;23763;48.130;11.602;2022-08-21T09:58:49;25.60;92.50
37938;DHT22;23763;48.130;11.602;2022-08-21T10:01:20;25.90;92.30
37938;DHT22;23763;48.130;11.602;2022-08-21T10:03:47;25.70;91.90
37938;DHT22;23763;48.130;11.602;2022-08-21T10:06:25;25.40;92.80
37938;DHT22;23763;48.130;11.602;2022-08-21T10:09:08;24.80;94.10
37938;DHT22;23763;48.130;11.602;2022-08-21T10:11:34;24.70;94.80
37938;DHT22;23763;48.130;11.602;2022-08-21T10:22:27;24.80;94.90
37938;DHT22;23763;48.130;11.602;2022-08-21T10:30:13;25.30;94.70
37938;DHT22;23763;48.130;11.602;2022-08-21T10:35:28;25.60;95.00
37938;DHT22;23763;48.130;11.602;2022-08-21T10:38:27;25.40;95.30
37938;DHT22;23763;48.130;11.602;2022-08-21T10:43:57;24.80;95.80
37938;DHT22;23763;48.130;11.602;2022-08-21T10:46:46;24.60;96.70
37938;DHT22;23763;48.130;11.602;2022-08-21T10:49:22;24.40;96.70
37938;DHT22;23763;48.130;11.602;2022-08-21T11:00:03;24.00;97.50
37938;DHT22;23763;48.130;11.602;2022-08-21T11:02:40;24.10;98.10
37938;DHT22;23763;48.130;11.602;2022-08-21T11:05:41;24.40;98.00
37938;DHT22;23763;48.130;11.602;2022-08-21T11:08:32;24.80;97.50
37938;DHT22;23763;48.130;11.602;2022-08-21T11:11:26;25.20;96.90
37938;DHT22;23763;48.130;11.602;2022-08-21T11:13:57;25.30;95.80
37938;DHT22;23763;48.130;11.602;2022-08-21T11:16:40;25.20;95.70
37938;DHT22;23763;48.130;11.602;2022-08-21T11:22:10;24.90;94.90
37938;DHT22;23763;48.130;11.602;2022-08-21T11:27:26;24.80;93.70
37938;DHT22;23763;48.130;11.602;2022-08-21T11:29:58;24.90;93.50
37938;DHT22;23763;48.130;11.602;2022-08-21T11:38:39;24.70;95.90
37938;DHT22;23763;48.130;11.602;2022-08-21T11:44:15;24.30;97.30
37938;DHT22;23763;48.130;11.602;2022-08-21T11:47:11;24.20;97.60
37938;DHT22;23763;48.130;11.602;2022-08-21T11:55:03;24.30;97.50
37938;DHT22;23763;48.130;11.602;2022-08-21T11:57:45;24.40;97.30
37938;DHT22;23763;48.130;11.602;2022-08-21T12:00:26;24.50;97.30
37938;DHT22;23763;48.130;11.602;2022-08-21T12:02:59;24.50;95.50
37938;DHT22;23763;48.130;11.602;2022-08-21T12:05:35;24.60;93.80
37938;DHT22;23763;48.130;11.602;2022-08-21T12:08:30;24.60;91.40
37938;DHT22;23763;48.130;11.602;2022-08-21T12:16:35;24.50;93.10
37938;DHT22;23763;48.130;11.602;2022-08-21T12:19:16;24.30;93.80
37938;DHT22;23763;48.130;11.602;2022-08-21T12:26:55;24.30;90.70
37938;DHT22;23763;48.130;11.602;2022-08-21T12:29:32;24.40;90.80
37938;DHT22;23763;48.130;11.602;2022-08-21T12:34:38;24.90;91.00
37938;DHT22;23763;48.130;11.602;2022-08-21T12:37:18;25.50;89.70
37938;DHT22;23763;48.130;11.602;2022-08-21T12:39:47;25.80;84.20
37938;DHT22;23763;48.130;11.602;2022-08-21T12:42:18;26.00;84.10
37938;DHT22;23763;48.130;11.602;2022-08-21T12:44:55;26.30;83.00
37938;DHT22;23763;48.130;11.602;2022-08-21T12:47:31;26.50;82.40
37938;DHT22;23763;48.130;11.602;2022-08-21T12:50:05;26.50;81.50
37938;DHT22;23763;48.130;11.602;2022-08-21T12:52:36;26.50;78.80
37938;DHT22;23763;48.130;11.602;2022-08-21T12:55:06;26.30;80.80
37938;DHT22;23763;48.130;11.602;2022-08-21T12:57:36;26.10;86.20
37938;DHT22;23763;48.130;11.602;2022-08-21T13:00:05;26.00;88.00
37938;DHT22;23763;48.130;11.602;2022-08-21T13:02:41;26.10;87.60
37938;DHT22;23763;48.130;11.602;2022-08-21T13:05:12;26.00;88.00
37938;DHT22;23763;48.130;11.602;2022-08-21T13:07:44;25.90;88.00
37938;DHT22;23763;48.130;11.602;2022-08-21T13:10:28;25.80;88.20
37938;DHT22;23763;48.130;11.602;2022-08-21T13:13:01;25.60;87.90
37938;DHT22;23763;48.130;11.602;2022-08-21T13:15:31;25.40;89.00
37938;DHT22;23763;48.130;11.602;2022-08-21T13:17:57;25.10;88.80
37938;DHT22;23763;48.130;11.602;2022-08-21T13:20:38;24.80;89.60
37938;DHT22;23763;48.130;11.602;2022-08-21T13:25:51;24.30;90.50
37938;DHT22;23763;48.130;11.602;2022-08-21T13:28:17;24.20;90.70
37938;DHT22;23763;48.130;11.602;2022-08-21T13:30:51;24.30;91.10
37938;DHT22;23763;48.130;11.602;2022-08-21T13:33:20;24.30;91.20
37938;DHT22;23763;48.130;11.602;2022-08-21T13:38:20;24.40;90.90
37938;DHT22;23763;48.130;11.602;2022-08-21T13:43:19;24.30;91.00
37938;DHT22;23763;48.130;11.602;2022-08-21T13:45:50;24.20;90.90
37938;DHT22;23763;48.130;11.602;2022-08-21T13:48:17;24.20;90.80
37938;DHT22;23763;48.130;11.602;2022-08-21T13:50:43;24.20;90.80
37938;DHT22;23763;48.130;11.602;2022-08-21T13:53:32;24.10;91.70
37938;DHT22;23763;48.130;11.602;2022-08-21T13:56:00;24.20;91.50
37938;DHT22;23763;48.130;11.602;2022-08-21T13:58:27;24.10;91.20
37938;DHT22;23763;48.130;11.602;2022-08-21T14:00:53;24.10;91.50
37938;DHT22;23763;48.130;11.602;2022-08-21T14:03:42;24.30;91.40
37938;DHT22;23763;48.130;11.602;2022-08-21T14:06:18;24.30;90.90
37938;DHT22;23763;48.130;11.602;2022-08-21T14:08:51;24.30;90.70
37938;DHT22;23763;48.130;11.602;2022-08-21T14:11:17;24.30;90.60
37938;DHT22;23763;48.130;11.602;2022-08-21T14:16:19;24.40;90.80
37938;DHT22;23763;48.130;11.602;2022-08-21T14:21:42;24.90;90.30
37938;DHT22;23763;48.130;11.602;2022-08-21T14:24:27;25.30;89.80
37938;DHT22;23763;48.130;11.602;2022-08-21T14:27:05;25.60;87.00
37938;DHT22;23763;48.130;11.602;2022-08-21T14:29:38;25.60;87.80
37938;DHT22;23763;48.130;11.602;2022-08-21T14:32:14;25.80;85.20
37938;DHT22;23763;48.130;11.602;2022-08-21T14:34:40;25.60;85.20
37938;DHT22;23763;48.130;11.602;2022-08-21T14:37:06;25.50;85.60
37938;DHT22;23763;48.130;11.602;2022-08-21T14:39:32;25.60;85.60
37938;DHT22;23763;48.130;11.602;2022-08-21T14:41:58;25.60;86.00
37938;DHT22;23763;48.130;11.602;2022-08-21T14:44:24;25.60;84.60
37938;DHT22;23763;48.130;11.602;2022-08-21T14:46:50;25.50;84.50
37938;DHT22;23763;48.130;11.602;2022-08-21T14:49:16;25.40;85.40
37938;DHT22;23763;48.130;11.602;2022-08-21T14:51:42;25.10;87.20
37938;DHT22;23763;48.130;11.602;2022-08-21T14:54:07;24.80;87.30
37938;DHT22;23763;48.130;11.602;2022-08-21T14:56:34;24.60;88.10
37938;DHT22;23763;48.130;11.602;2022-08-21T14:59:06;24.40;88.70
37938;DHT22;23763;48.130;11.602;2022-08-21T15:01:35;24.30;89.50
37938;DHT22;23763;48.130;11.602;2022-08-21T15:04:01;24.20;88.90
37938;DHT22;23763;48.130;11.602;2022-08-21T15:06:27;24.30;88.50
37938;DHT22;23763;48.130;11.602;2022-08-21T15:08:53;24.50;88.90
37938;DHT22;23763;48.130;11.602;2022-08-21T15:11:20;24.80;88.60
37938;DHT22;23763;48.130;11.602;2022-08-21T15:13:54;25.00;88.00
37938;DHT22;23763;48.130;11.602;2022-08-21T15:16:21;24.90;87.20
37938;DHT22;23763;48.130;11.602;2022-08-21T15:18:47;25.00;87.80
37938;DHT22;23763;48.130;11.602;2022-08-21T15:21:13;24.90;87.20
37938;DHT22;23763;48.130;11.602;2022-08-21T15:23:38;25.00;86.90
37938;DHT22;23763;48.130;11.602;2022-08-21T15:26:04;25.10;87.30
37938;DHT22;23763;48.130;11.602;2022-08-21T15:28:31;25.20;87.40
37938;DHT22;23763;48.130;11.602;2022-08-21T15:30:59;25.20;86.70
37938;DHT22;23763;48.130;11.602;2022-08-21T15:33:25;25.20;85.10
37938;DHT22;23763;48.130;11.602;2022-08-21T15:35:51;25.10;87.50
37938;DHT22;23763;48.130;11.602;2022-08-21T15:38:17;24.90;86.30
37938;DHT22;23763;48.130;11.602;2022-08-21T15:40:43;24.70;87.00
37938;DHT22;23763;48.130;11.602;2022-08-21T15:43:21;24.50;86.40
37938;DHT22;23763;48.130;11.602;2022-08-21T15:45:47;24.30;87.80
37938;DHT22;23763;48.130;11.602;2022-08-21T15:48:13;24.10;87.10
37938;DHT22;23763;48.130;11.602;2022-08-21T15:50:39;24.00;88.80
37938;DHT22;23763;48.130;11.602;2022-08-21T15:53:04;24.10;88.50
37938;DHT22;23763;48.130;11.602;2022-08-21T15:55:33;24.20;86.80
37938;DHT22;23763;48.130;11.602;2022-08-21T15:57:58;24.40;85.40
37938;DHT22;23763;48.130;11.602;2022-08-21T16:00:24;24.50;84.50
37938;DHT22;23763;48.130;11.602;2022-08-21T16:02:54;24.60;85.60
37938;DHT22;23763;48.130;11.602;2022-08-21T16:05:21;24.60;84.80
37938;DHT22;23763;48.130;11.602;2022-08-21T16:07:48;24.60;85.40
37938;DHT22;23763;48.130;11.602;2022-08-21T16:10:16;24.50;85.80
37938;DHT22;23763;48.130;11.602;2022-08-21T16:12:46;24.30;85.40
37938;DHT22;23763;48.130;11.602;2022-08-21T16:15:15;24.30;85.30
37938;DHT22;23763;48.130;11.602;2022-08-21T16:17:44;24.30;85.80
37938;DHT22;23763;48.130;11.602;2022-08-21T16:20:19;24.30;86.10
37938;DHT22;23763;48.130;11.602;2022-08-21T16:22:46;24.20;85.60
37938;DHT22;23763;48.130;11.602;2022-08-21T16:25:13;24.20;85.00
37938;DHT22;23763;48.130;11.602;2022-08-21T16:27:40;24.10;87.60
37938;DHT22;23763;48.130;11.602;2022-08-21T16:30:07;24.00;84.10
37938;DHT22;23763;48.130;11.602;2022-08-21T16:32:33;24.00;84.30
37938;DHT22;23763;48.130;11.602;2022-08-21T16:35:00;24.00;84.60
37938;DHT22;23763;48.130;11.602;2022-08-21T16:37:26;24.00;84.80
37938;DHT22;23763;48.130;11.602;2022-08-21T16:39:52;23.90;83.60
37938;DHT22;23763;48.130;11.602;2022-08-21T16:42:21;23.90;84.30
37938;DHT22;23763;48.130;11.602;2022-08-21T16:44:47;23.70;85.30
37938;DHT22;23763;48.130;11.602;2022-08-21T16:47:13;23.70;84.70
37938;DHT22;23763;48.130;11.602;2022-08-21T16:49:39;23.60;85.10
37938;DHT22;23763;48.130;11.602;2022-08-21T16:52:05;23.60;85.90
37938;DHT22;23763;48.130;11.602;2022-08-21T16:54:31;23.50;86.70
37938;DHT22;23763;48.130;11.602;2022-08-21T16:56:58;23.50;85.70
37938;DHT22;23763;48.130;11.602;2022-08-21T16:59:24;23.50;85.50
37938;DHT22;23763;48.130;11.602;2022-08-21T17:01:51;23.30;86.90